sensor_id;sensor_type;location;lat;lon;timestamp;P1;durP1;ratioP1;P2;durP2;ratioP2
26540;SDS011;14206;50.202;10.948;2023-08-12T00:00:57;1.20;;;1.08;;
26540;SDS011;14206;50.202;10.948;2023-08-12T00:03:24;1.30;;;1.20;;
26540;SDS011;14206;50.202;10.948;2023-08-12T00:05:52;1.15;;;1.05;;
26540;SDS011;14206;50.202;10.948;2023-08-12T00:08:19;1.30;;;1.13;;
26540;SDS011;14206;50.202;10.948;2023-08-12T00:10:46;1.08;;;1.00;;
26540;SDS011;14206;50.202;10.948;2023-08-12T00:13:13;1.50;;;1.40;;
26540;SDS011;14206;50.202;10.948;2023-08-12T00:15:44;1.20;;;1.10;;
26540;SDS011;14206;50.202;10.948;2023-08-12T00:18:11;1.17;;;1.10;;
26540;SDS011;14206;50.202;10.948;2023-08-12T00:20:38;1.67;;;1.02;;
26540;SDS011;14206;50.202;10.948;2023-08-12T00:23:05;1.20;;;1.10;;
26540;SDS011;14206;50.202;10.948;2023-08-12T00:25:33;1.58;;;1.20;;
26540;SDS011;14206;50.202;10.948;2023-08-12T00:28:06;1.00;;;1.00;;
26540;SDS011;14206;50.202;10.948;2023-08-12T00:30:33;1.13;;;1.02;;
26540;SDS011;14206;50.202;10.948;2023-08-12T00:33:00;1.52;;;1.30;;
26540;SDS011;14206;50.202;10.948;2023-08-12T00:35:27;1.08;;;0.98;;
26540;SDS011;14206;50.202;10.948;2023-08-12T00:37:54;1.30;;;1.20;;
26540;SDS011;14206;50.202;10.948;2023-08-12T00:40:21;1.30;;;1.20;;
26540;SDS011;14206;50.202;10.948;2023-08-12T00:42:48;2.20;;;1.48;;
26540;SDS011;14206;50.202;10.948;2023-08-12T00:45:14;1.20;;;1.10;;
26540;SDS011;14206;50.202;10.948;2023-08-12T00:47:42;1.27;;;1.20;;
26540;SDS011;14206;50.202;10.948;2023-08-12T00:50:09;1.30;;;1.20;;
26540;SDS011;14206;50.202;10.948;2023-08-12T00:52:38;1.23;;;1.13;;
26540;SDS011;14206;50.202;10.948;2023-08-12T00:55:06;1.35;;;1.25;;
26540;SDS011;14206;50.202;10.948;2023-08-12T00:57:42;1.30;;;1.20;;
26540;SDS011;14206;50.202;10.948;2023-08-12T01:00:38;1.30;;;1.20;;
26540;SDS011;14206;50.202;10.948;2023-08-12T01:03:05;1.42;;;1.33;;
26540;SDS011;14206;50.202;10.948;2023-08-12T01:05:33;1.30;;;1.20;;
26540;SDS011;14206;50.202;10.948;2023-08-12T01:08:00;1.20;;;1.10;;
26540;SDS011;14206;50.202;10.948;2023-08-12T01:10:28;1.83;;;1.20;;
26540;SDS011;14206;50.202;10.948;2023-08-12T01:13:13;1.25;;;1.15;;
26540;SDS011;14206;50.202;10.948;2023-08-12T01:15:51;1.38;;;1.25;;
26540;SDS011;14206;50.202;10.948;2023-08-12T01:18:22;1.30;;;1.20;;
26540;SDS011;14206;50.202;10.948;2023-08-12T01:20:50;0.98;;;0.98;;
26540;SDS011;14206;50.202;10.948;2023-08-12T01:23:17;1.25;;;1.15;;
26540;SDS011;14206;50.202;10.948;2023-08-12T01:25:46;1.67;;;1.50;;
26540;SDS011;14206;50.202;10.948;2023-08-12T01:28:13;1.33;;;1.23;;
26540;SDS011;14206;50.202;10.948;2023-08-12T01:30:46;1.60;;;1.27;;
26540;SDS011;14206;50.202;10.948;2023-08-12T01:33:28;1.20;;;1.13;;
26540;SDS011;14206;50.202;10.948;2023-08-12T01:36:15;1.30;;;1.20;;
26540;SDS011;14206;50.202;10.948;2023-08-12T01:38:44;1.55;;;1.40;;
26540;SDS011;14206;50.202;10.948;2023-08-12T01:41:13;1.80;;;1.40;;
26540;SDS011;14206;50.202;10.948;2023-08-12T01:43:41;2.13;;;1.40;;
26540;SDS011;14206;50.202;10.948;2023-08-12T01:46:09;1.30;;;1.20;;
26540;SDS011;14206;50.202;10.948;2023-08-12T01:48:36;1.25;;;1.17;;
26540;SDS011;14206;50.202;10.948;2023-08-12T01:51:03;1.40;;;1.30;;
26540;SDS011;14206;50.202;10.948;2023-08-12T01:53:31;1.33;;;1.23;;
26540;SDS011;14206;50.202;10.948;2023-08-12T01:55:58;1.63;;;1.52;;
26540;SDS011;14206;50.202;10.948;2023-08-12T01:58:25;1.08;;;1.08;;
26540;SDS011;14206;50.202;10.948;2023-08-12T02:00:55;1.50;;;1.40;;
26540;SDS011;14206;50.202;10.948;2023-08-12T02:03:22;1.33;;;1.20;;
26540;SDS011;14206;50.202;10.948;2023-08-12T02:05:50;1.50;;;1.40;;
26540;SDS011;14206;50.202;10.948;2023-08-12T02:08:17;1.45;;;1.30;;
26540;SDS011;14206;50.202;10.948;2023-08-12T02:10:44;1.40;;;1.30;;
26540;SDS011;14206;50.202;10.948;2023-08-12T02:13:10;1.60;;;1.50;;
26540;SDS011;14206;50.202;10.948;2023-08-12T02:15:37;1.63;;;1.48;;
26540;SDS011;14206;50.202;10.948;2023-08-12T02:18:10;1.92;;;1.70;;
26540;SDS011;14206;50.202;10.948;2023-08-12T02:20:37;1.60;;;1.50;;
26540;SDS011;14206;50.202;10.948;2023-08-12T02:23:04;1.60;;;1.50;;
26540;SDS011;14206;50.202;10.948;2023-08-12T02:25:30;1.85;;;1.48;;
26540;SDS011;14206;50.202;10.948;2023-08-12T02:27:58;1.40;;;1.30;;
26540;SDS011;14206;50.202;10.948;2023-08-12T02:30:25;1.55;;;1.45;;
26540;SDS011;14206;50.202;10.948;2023-08-12T02:32:52;1.60;;;1.50;;
26540;SDS011;14206;50.202;10.948;2023-08-12T02:35:20;1.50;;;1.40;;
26540;SDS011;14206;50.202;10.948;2023-08-12T02:37:50;2.03;;;1.40;;
26540;SDS011;14206;50.202;10.948;2023-08-12T02:40:17;2.47;;;1.45;;
26540;SDS011;14206;50.202;10.948;2023-08-12T02:42:44;1.33;;;1.23;;
26540;SDS011;14206;50.202;10.948;2023-08-12T02:45:11;2.38;;;1.45;;
26540;SDS011;14206;50.202;10.948;2023-08-12T02:47:38;1.60;;;1.50;;
26540;SDS011;14206;50.202;10.948;2023-08-12T02:50:05;1.40;;;1.30;;
26540;SDS011;14206;50.202;10.948;2023-08-12T02:52:32;1.92;;;1.40;;
26540;SDS011;14206;50.202;10.948;2023-08-12T02:54:59;1.60;;;1.50;;
26540;SDS011;14206;50.202;10.948;2023-08-12T02:57:26;1.48;;;1.38;;
26540;SDS011;14206;50.202;10.948;2023-08-12T02:59:53;1.58;;;1.38;;
26540;SDS011;14206;50.202;10.948;2023-08-12T03:02:20;1.50;;;1.40;;
26540;SDS011;14206;50.202;10.948;2023-08-12T03:04:47;1.50;;;1.40;;
26540;SDS011;14206;50.202;10.948;2023-08-12T03:07:14;2.20;;;1.52;;
26540;SDS011;14206;50.202;10.948;2023-08-12T03:09:41;1.70;;;1.60;;
26540;SDS011;14206;50.202;10.948;2023-08-12T03:12:08;1.60;;;1.50;;
26540;SDS011;14206;50.202;10.948;2023-08-12T03:14:35;2.10;;;1.48;;
26540;SDS011;14206;50.202;10.948;2023-08-12T03:17:02;1.48;;;1.38;;
26540;SDS011;14206;50.202;10.948;2023-08-12T03:19:31;1.40;;;1.30;;
26540;SDS011;14206;50.202;10.948;2023-08-12T03:21:58;1.17;;;1.13;;
26540;SDS011;14206;50.202;10.948;2023-08-12T03:24:26;1.70;;;1.60;;
26540;SDS011;14206;50.202;10.948;2023-08-12T03:26:53;1.63;;;1.52;;
26540;SDS011;14206;50.202;10.948;2023-08-12T03:29:19;2.00;;;1.70;;
26540;SDS011;14206;50.202;10.948;2023-08-12T03:31:47;2.38;;;1.35;;
26540;SDS011;14206;50.202;10.948;2023-08-12T03:34:15;1.63;;;1.50;;
26540;SDS011;14206;50.202;10.948;2023-08-12T03:36:42;1.73;;;1.63;;
26540;SDS011;14206;50.202;10.948;2023-08-12T03:39:10;1.77;;;1.60;;
26540;SDS011;14206;50.202;10.948;2023-08-12T03:41:38;1.60;;;1.50;;
26540;SDS011;14206;50.202;10.948;2023-08-12T03:44:05;1.50;;;1.40;;
26540;SDS011;14206;50.202;10.948;2023-08-12T03:46:33;1.67;;;1.58;;
26540;SDS011;14206;50.202;10.948;2023-08-12T03:49:01;2.30;;;1.67;;
26540;SDS011;14206;50.202;10.948;2023-08-12T03:51:29;1.70;;;1.60;;
26540;SDS011;14206;50.202;10.948;2023-08-12T03:53:56;1.50;;;1.40;;
26540;SDS011;14206;50.202;10.948;2023-08-12T03:56:25;1.50;;;1.40;;
26540;SDS011;14206;50.202;10.948;2023-08-12T03:58:52;1.60;;;1.50;;
26540;SDS011;14206;50.202;10.948;2023-08-12T04:01:19;1.55;;;1.45;;
26540;SDS011;14206;50.202;10.948;2023-08-12T04:03:47;1.60;;;1.50;;
26540;SDS011;14206;50.202;10.948;2023-08-12T04:06:14;1.70;;;1.33;;
26540;SDS011;14206;50.202;10.948;2023-08-12T04:08:41;1.50;;;1.40;;
26540;SDS011;14206;50.202;10.948;2023-08-12T04:11:08;1.48;;;1.38;;
26540;SDS011;14206;50.202;10.948;2023-08-12T04:13:35;1.70;;;1.52;;
26540;SDS011;14206;50.202;10.948;2023-08-12T04:16:02;1.40;;;1.30;;
26540;SDS011;14206;50.202;10.948;2023-08-12T04:18:29;1.35;;;1.25;;
26540;SDS011;14206;50.202;10.948;2023-08-12T04:20:56;1.60;;;1.50;;
26540;SDS011;14206;50.202;10.948;2023-08-12T04:23:22;1.52;;;1.42;;
26540;SDS011;14206;50.202;10.948;2023-08-12T04:25:52;1.50;;;1.40;;
26540;SDS011;14206;50.202;10.948;2023-08-12T04:28:24;2.08;;;1.65;;
26540;SDS011;14206;50.202;10.948;2023-08-12T04:30:51;1.50;;;1.40;;
26540;SDS011;14206;50.202;10.948;2023-08-12T04:33:21;1.63;;;1.52;;
26540;SDS011;14206;50.202;10.948;2023-08-12T04:35:49;1.73;;;1.60;;
26540;SDS011;14206;50.202;10.948;2023-08-12T04:38:17;1.67;;;1.58;;
26540;SDS011;14206;50.202;10.948;2023-08-12T04:40:46;1.70;;;1.60;;
26540;SDS011;14206;50.202;10.948;2023-08-12T04:43:13;1.60;;;1.50;;
26540;SDS011;14206;50.202;10.948;2023-08-12T04:45:44;1.70;;;1.60;;
26540;SDS011;14206;50.202;10.948;2023-08-12T04:48:12;1.80;;;1.60;;
26540;SDS011;14206;50.202;10.948;2023-08-12T04:50:41;1.60;;;1.50;;
26540;SDS011;14206;50.202;10.948;2023-08-12T04:53:08;2.90;;;1.50;;
26540;SDS011;14206;50.202;10.948;2023-08-12T04:55:35;1.70;;;1.60;;
26540;SDS011;14206;50.202;10.948;2023-08-12T04:58:04;1.80;;;1.70;;
26540;SDS011;14206;50.202;10.948;2023-08-12T05:00:31;1.77;;;1.67;;
26540;SDS011;14206;50.202;10.948;2023-08-12T05:02:58;1.75;;;1.65;;
26540;SDS011;14206;50.202;10.948;2023-08-12T05:05:26;1.88;;;1.67;;
26540;SDS011;14206;50.202;10.948;2023-08-12T05:07:53;1.65;;;1.55;;
26540;SDS011;14206;50.202;10.948;2023-08-12T05:10:21;1.80;;;1.70;;
26540;SDS011;14206;50.202;10.948;2023-08-12T05:12:49;1.58;;;1.48;;
26540;SDS011;14206;50.202;10.948;2023-08-12T05:15:18;1.60;;;1.50;;
26540;SDS011;14206;50.202;10.948;2023-08-12T05:17:46;2.95;;;1.77;;
26540;SDS011;14206;50.202;10.948;2023-08-12T05:20:17;2.45;;;2.10;;
26540;SDS011;14206;50.202;10.948;2023-08-12T05:22:44;1.90;;;1.67;;
26540;SDS011;14206;50.202;10.948;2023-08-12T05:25:10;1.67;;;1.58;;
26540;SDS011;14206;50.202;10.948;2023-08-12T05:27:37;1.90;;;1.80;;
26540;SDS011;14206;50.202;10.948;2023-08-12T05:30:05;1.90;;;1.80;;
26540;SDS011;14206;50.202;10.948;2023-08-12T05:32:32;1.88;;;1.77;;
26540;SDS011;14206;50.202;10.948;2023-08-12T05:35:01;1.88;;;1.70;;
26540;SDS011;14206;50.202;10.948;2023-08-12T05:37:28;2.10;;;1.90;;
26540;SDS011;14206;50.202;10.948;2023-08-12T05:39:55;2.10;;;1.90;;
26540;SDS011;14206;50.202;10.948;2023-08-12T05:42:22;2.10;;;1.90;;
26540;SDS011;14206;50.202;10.948;2023-08-12T05:44:49;2.03;;;1.80;;
26540;SDS011;14206;50.202;10.948;2023-08-12T05:47:16;1.88;;;1.77;;
26540;SDS011;14206;50.202;10.948;2023-08-12T05:49:43;1.70;;;1.60;;
26540;SDS011;14206;50.202;10.948;2023-08-12T05:52:11;2.90;;;2.10;;
26540;SDS011;14206;50.202;10.948;2023-08-12T05:54:38;1.90;;;1.80;;
26540;SDS011;14206;50.202;10.948;2023-08-12T05:57:05;1.90;;;1.80;;
26540;SDS011;14206;50.202;10.948;2023-08-12T05:59:32;2.05;;;1.90;;
26540;SDS011;14206;50.202;10.948;2023-08-12T06:01:59;1.75;;;1.65;;
26540;SDS011;14206;50.202;10.948;2023-08-12T06:04:25;1.95;;;1.85;;
26540;SDS011;14206;50.202;10.948;2023-08-12T06:06:52;2.05;;;1.70;;
26540;SDS011;14206;50.202;10.948;2023-08-12T06:09:19;1.63;;;1.52;;
26540;SDS011;14206;50.202;10.948;2023-08-12T06:11:47;1.38;;;1.27;;
26540;SDS011;14206;50.202;10.948;2023-08-12T06:14:14;1.55;;;1.45;;
26540;SDS011;14206;50.202;10.948;2023-08-12T06:16:41;1.45;;;1.35;;
26540;SDS011;14206;50.202;10.948;2023-08-12T06:19:08;1.70;;;1.60;;
26540;SDS011;14206;50.202;10.948;2023-08-12T06:21:35;1.85;;;1.63;;
26540;SDS011;14206;50.202;10.948;2023-08-12T06:24:01;3.33;;;1.40;;
26540;SDS011;14206;50.202;10.948;2023-08-12T06:26:29;1.35;;;1.25;;
26540;SDS011;14206;50.202;10.948;2023-08-12T06:28:56;1.58;;;1.48;;
26540;SDS011;14206;50.202;10.948;2023-08-12T06:31:23;1.98;;;1.63;;
26540;SDS011;14206;50.202;10.948;2023-08-12T06:33:49;1.58;;;1.48;;
26540;SDS011;14206;50.202;10.948;2023-08-12T06:36:16;1.65;;;1.55;;
26540;SDS011;14206;50.202;10.948;2023-08-12T06:38:43;1.60;;;1.50;;
26540;SDS011;14206;50.202;10.948;2023-08-12T06:41:10;1.65;;;1.55;;
26540;SDS011;14206;50.202;10.948;2023-08-12T06:43:37;1.60;;;1.45;;
26540;SDS011;14206;50.202;10.948;2023-08-12T06:46:04;1.38;;;1.27;;
26540;SDS011;14206;50.202;10.948;2023-08-12T06:48:31;1.23;;;1.17;;
26540;SDS011;14206;50.202;10.948;2023-08-12T06:50:58;1.33;;;1.23;;
26540;SDS011;14206;50.202;10.948;2023-08-12T06:53:26;2.38;;;1.17;;
26540;SDS011;14206;50.202;10.948;2023-08-12T06:55:53;1.42;;;1.33;;
26540;SDS011;14206;50.202;10.948;2023-08-12T06:58:21;1.40;;;1.30;;
26540;SDS011;14206;50.202;10.948;2023-08-12T07:00:48;1.70;;;1.60;;
26540;SDS011;14206;50.202;10.948;2023-08-12T07:03:15;1.50;;;1.40;;
26540;SDS011;14206;50.202;10.948;2023-08-12T07:05:42;2.03;;;1.50;;
26540;SDS011;14206;50.202;10.948;2023-08-12T07:08:08;2.85;;;1.40;;
26540;SDS011;14206;50.202;10.948;2023-08-12T07:10:39;1.42;;;1.27;;
26540;SDS011;14206;50.202;10.948;2023-08-12T07:13:06;1.38;;;1.27;;
26540;SDS011;14206;50.202;10.948;2023-08-12T07:15:33;1.30;;;1.20;;
26540;SDS011;14206;50.202;10.948;2023-08-12T07:18:01;1.88;;;1.40;;
26540;SDS011;14206;50.202;10.948;2023-08-12T07:20:28;2.55;;;1.50;;
26540;SDS011;14206;50.202;10.948;2023-08-12T07:22:55;1.60;;;1.50;;
26540;SDS011;14206;50.202;10.948;2023-08-12T07:25:22;1.30;;;1.20;;
26540;SDS011;14206;50.202;10.948;2023-08-12T07:27:49;1.60;;;1.40;;
26540;SDS011;14206;50.202;10.948;2023-08-12T07:30:16;1.23;;;1.13;;
26540;SDS011;14206;50.202;10.948;2023-08-12T07:32:43;1.38;;;1.27;;
26540;SDS011;14206;50.202;10.948;2023-08-12T07:35:10;1.42;;;1.33;;
26540;SDS011;14206;50.202;10.948;2023-08-12T07:37:37;1.52;;;1.42;;
26540;SDS011;14206;50.202;10.948;2023-08-12T07:40:04;1.30;;;1.20;;
26540;SDS011;14206;50.202;10.948;2023-08-12T07:42:31;1.45;;;1.35;;
26540;SDS011;14206;50.202;10.948;2023-08-12T07:44:58;1.40;;;1.30;;
26540;SDS011;14206;50.202;10.948;2023-08-12T07:47:25;1.42;;;1.17;;
26540;SDS011;14206;50.202;10.948;2023-08-12T07:49:52;1.20;;;1.10;;
26540;SDS011;14206;50.202;10.948;2023-08-12T07:52:19;1.50;;;1.40;;
26540;SDS011;14206;50.202;10.948;2023-08-12T07:54:46;2.03;;;1.30;;
26540;SDS011;14206;50.202;10.948;2023-08-12T07:57:13;1.30;;;1.20;;
26540;SDS011;14206;50.202;10.948;2023-08-12T07:59:40;1.48;;;1.38;;
26540;SDS011;14206;50.202;10.948;2023-08-12T08:02:07;1.38;;;1.27;;
26540;SDS011;14206;50.202;10.948;2023-08-12T08:04:34;1.35;;;1.25;;
26540;SDS011;14206;50.202;10.948;2023-08-12T08:07:01;1.30;;;1.20;;
26540;SDS011;14206;50.202;10.948;2023-08-12T08:09:27;1.40;;;1.20;;
26540;SDS011;14206;50.202;10.948;2023-08-12T08:11:55;1.40;;;1.30;;
26540;SDS011;14206;50.202;10.948;2023-08-12T08:14:22;1.80;;;1.48;;
26540;SDS011;14206;50.202;10.948;2023-08-12T08:16:49;1.42;;;1.30;;
26540;SDS011;14206;50.202;10.948;2023-08-12T08:19:16;1.30;;;1.20;;
26540;SDS011;14206;50.202;10.948;2023-08-12T08:21:45;1.30;;;1.20;;
26540;SDS011;14206;50.202;10.948;2023-08-12T08:24:11;1.17;;;1.13;;
26540;SDS011;14206;50.202;10.948;2023-08-12T08:26:39;1.35;;;1.17;;
26540;SDS011;14206;50.202;10.948;2023-08-12T08:29:09;1.30;;;1.20;;
26540;SDS011;14206;50.202;10.948;2023-08-12T08:31:35;1.90;;;1.20;;
26540;SDS011;14206;50.202;10.948;2023-08-12T08:34:02;1.17;;;1.13;;
26540;SDS011;14206;50.202;10.948;2023-08-12T08:36:30;2.00;;;1.80;;
26540;SDS011;14206;50.202;10.948;2023-08-12T08:38:57;1.88;;;1.75;;
26540;SDS011;14206;50.202;10.948;2023-08-12T08:41:24;1.40;;;1.30;;
26540;SDS011;14206;50.202;10.948;2023-08-12T08:43:52;1.60;;;1.50;;
26540;SDS011;14206;50.202;10.948;2023-08-12T08:46:21;2.90;;;1.40;;
26540;SDS011;14206;50.202;10.948;2023-08-12T08:48:49;2.85;;;1.42;;
26540;SDS011;14206;50.202;10.948;2023-08-12T08:51:19;1.50;;;1.40;;
26540;SDS011;14206;50.202;10.948;2023-08-12T08:53:47;1.23;;;1.13;;
26540;SDS011;14206;50.202;10.948;2023-08-12T08:56:17;1.45;;;1.35;;
26540;SDS011;14206;50.202;10.948;2023-08-12T08:58:45;1.30;;;1.20;;
26540;SDS011;14206;50.202;10.948;2023-08-12T09:01:12;1.30;;;1.20;;
26540;SDS011;14206;50.202;10.948;2023-08-12T09:03:41;1.63;;;1.50;;
26540;SDS011;14206;50.202;10.948;2023-08-12T09:06:09;1.65;;;1.40;;
26540;SDS011;14206;50.202;10.948;2023-08-12T09:08:37;1.60;;;1.50;;
26540;SDS011;14206;50.202;10.948;2023-08-12T09:11:07;1.40;;;1.30;;
26540;SDS011;14206;50.202;10.948;2023-08-12T09:13:34;1.63;;;1.30;;
26540;SDS011;14206;50.202;10.948;2023-08-12T09:16:01;1.10;;;1.10;;
26540;SDS011;14206;50.202;10.948;2023-08-12T09:18:29;1.30;;;1.20;;
26540;SDS011;14206;50.202;10.948;2023-08-12T09:21:03;1.40;;;1.30;;
26540;SDS011;14206;50.202;10.948;2023-08-12T09:23:40;1.17;;;1.10;;
26540;SDS011;14206;50.202;10.948;2023-08-12T09:26:15;1.40;;;1.30;;
26540;SDS011;14206;50.202;10.948;2023-08-12T09:28:44;1.40;;;1.30;;
26540;SDS011;14206;50.202;10.948;2023-08-12T09:31:25;1.73;;;1.30;;
26540;SDS011;14206;50.202;10.948;2023-08-12T09:33:57;1.63;;;1.45;;
26540;SDS011;14206;50.202;10.948;2023-08-12T09:36:34;1.40;;;1.30;;
26540;SDS011;14206;50.202;10.948;2023-08-12T09:39:05;1.67;;;1.58;;
26540;SDS011;14206;50.202;10.948;2023-08-12T09:41:33;1.33;;;1.20;;
26540;SDS011;14206;50.202;10.948;2023-08-12T09:44:02;1.48;;;1.38;;
26540;SDS011;14206;50.202;10.948;2023-08-12T09:46:29;2.33;;;1.35;;
26540;SDS011;14206;50.202;10.948;2023-08-12T09:48:59;1.40;;;1.30;;
26540;SDS011;14206;50.202;10.948;2023-08-12T09:51:26;1.67;;;1.38;;
26540;SDS011;14206;50.202;10.948;2023-08-12T09:53:53;1.40;;;1.30;;
26540;SDS011;14206;50.202;10.948;2023-08-12T09:56:22;1.00;;;1.00;;
26540;SDS011;14206;50.202;10.948;2023-08-12T09:58:49;1.33;;;1.23;;
26540;SDS011;14206;50.202;10.948;2023-08-12T10:01:18;1.40;;;1.30;;
26540;SDS011;14206;50.202;10.948;2023-08-12T10:03:50;1.67;;;1.23;;
26540;SDS011;14206;50.202;10.948;2023-08-12T10:06:18;1.55;;;1.40;;
26540;SDS011;14206;50.202;10.948;2023-08-12T10:08:46;3.00;;;1.40;;
26540;SDS011;14206;50.202;10.948;2023-08-12T10:11:14;1.10;;;1.00;;
26540;SDS011;14206;50.202;10.948;2023-08-12T10:13:42;1.23;;;1.13;;
26540;SDS011;14206;50.202;10.948;2023-08-12T10:16:09;1.90;;;1.30;;
26540;SDS011;14206;50.202;10.948;2023-08-12T10:18:38;1.70;;;1.60;;
26540;SDS011;14206;50.202;10.948;2023-08-12T10:21:08;1.30;;;1.20;;
26540;SDS011;14206;50.202;10.948;2023-08-12T10:23:37;1.13;;;1.08;;
26540;SDS011;14206;50.202;10.948;2023-08-12T10:26:05;1.35;;;1.25;;
26540;SDS011;14206;50.202;10.948;2023-08-12T10:28:33;2.10;;;1.90;;
26540;SDS011;14206;50.202;10.948;2023-08-12T10:31:06;2.20;;;1.80;;
26540;SDS011;14206;50.202;10.948;2023-08-12T10:33:37;1.73;;;1.63;;
26540;SDS011;14206;50.202;10.948;2023-08-12T10:36:05;3.25;;;1.70;;
26540;SDS011;14206;50.202;10.948;2023-08-12T10:38:32;2.67;;;1.77;;
26540;SDS011;14206;50.202;10.948;2023-08-12T10:43:58;1.70;;;1.60;;
26540;SDS011;14206;50.202;10.948;2023-08-12T10:46:36;1.50;;;1.40;;
26540;SDS011;14206;50.202;10.948;2023-08-12T10:49:10;3.45;;;1.92;;
26540;SDS011;14206;50.202;10.948;2023-08-12T10:54:18;2.05;;;1.58;;
26540;SDS011;14206;50.202;10.948;2023-08-12T10:57:11;1.42;;;1.20;;
26540;SDS011;14206;50.202;10.948;2023-08-12T11:05:08;1.90;;;1.80;;
26540;SDS011;14206;50.202;10.948;2023-08-12T11:07:45;2.07;;;1.93;;
26540;SDS011;14206;50.202;10.948;2023-08-12T11:10:29;2.20;;;1.77;;
26540;SDS011;14206;50.202;10.948;2023-08-12T11:13:00;1.40;;;1.30;;
26540;SDS011;14206;50.202;10.948;2023-08-12T11:15:31;1.90;;;1.40;;
26540;SDS011;14206;50.202;10.948;2023-08-12T11:17:59;3.10;;;1.48;;
26540;SDS011;14206;50.202;10.948;2023-08-12T11:20:32;2.10;;;1.90;;
26540;SDS011;14206;50.202;10.948;2023-08-12T11:23:06;1.63;;;1.50;;
26540;SDS011;14206;50.202;10.948;2023-08-12T11:25:34;1.63;;;1.52;;
26540;SDS011;14206;50.202;10.948;2023-08-12T11:28:04;1.73;;;1.63;;
26540;SDS011;14206;50.202;10.948;2023-08-12T11:30:32;1.48;;;1.30;;
26540;SDS011;14206;50.202;10.948;2023-08-12T11:33:02;2.25;;;1.88;;
26540;SDS011;14206;50.202;10.948;2023-08-12T11:35:29;1.83;;;1.65;;
26540;SDS011;14206;50.202;10.948;2023-08-12T11:37:57;4.22;;;1.80;;
26540;SDS011;14206;50.202;10.948;2023-08-12T11:40:25;2.58;;;1.50;;
26540;SDS011;14206;50.202;10.948;2023-08-12T11:42:53;2.95;;;1.98;;
26540;SDS011;14206;50.202;10.948;2023-08-12T11:45:23;1.80;;;1.70;;
26540;SDS011;14206;50.202;10.948;2023-08-12T11:47:56;2.40;;;2.00;;
26540;SDS011;14206;50.202;10.948;2023-08-12T11:50:24;2.00;;;1.58;;
26540;SDS011;14206;50.202;10.948;2023-08-12T11:52:53;1.27;;;1.17;;
26540;SDS011;14206;50.202;10.948;2023-08-12T11:55:21;2.10;;;1.50;;
26540;SDS011;14206;50.202;10.948;2023-08-12T11:57:50;2.45;;;1.52;;
26540;SDS011;14206;50.202;10.948;2023-08-12T12:00:17;2.55;;;1.60;;
26540;SDS011;14206;50.202;10.948;2023-08-12T12:02:50;1.95;;;1.73;;
26540;SDS011;14206;50.202;10.948;2023-08-12T12:05:21;1.63;;;1.52;;
26540;SDS011;14206;50.202;10.948;2023-08-12T12:07:50;1.50;;;1.40;;
26540;SDS011;14206;50.202;10.948;2023-08-12T12:10:27;1.83;;;1.73;;
26540;SDS011;14206;50.202;10.948;2023-08-12T12:13:00;2.05;;;1.85;;
26540;SDS011;14206;50.202;10.948;2023-08-12T12:15:28;1.92;;;1.70;;
26540;SDS011;14206;50.202;10.948;2023-08-12T12:17:55;1.50;;;1.40;;
26540;SDS011;14206;50.202;10.948;2023-08-12T12:20:22;1.50;;;1.40;;
26540;SDS011;14206;50.202;10.948;2023-08-12T12:22:49;1.45;;;1.35;;
26540;SDS011;14206;50.202;10.948;2023-08-12T12:25:16;1.80;;;1.55;;
26540;SDS011;14206;50.202;10.948;2023-08-12T12:27:47;1.20;;;1.10;;
26540;SDS011;14206;50.202;10.948;2023-08-12T12:30:14;1.75;;;1.33;;
26540;SDS011;14206;50.202;10.948;2023-08-12T12:32:42;1.75;;;1.65;;
26540;SDS011;14206;50.202;10.948;2023-08-12T12:35:10;1.95;;;1.83;;
26540;SDS011;14206;50.202;10.948;2023-08-12T12:37:37;1.60;;;1.50;;
26540;SDS011;14206;50.202;10.948;2023-08-12T12:40:05;1.40;;;1.30;;
26540;SDS011;14206;50.202;10.948;2023-08-12T12:42:33;2.95;;;2.20;;
26540;SDS011;14206;50.202;10.948;2023-08-12T12:45:00;2.22;;;1.90;;
26540;SDS011;14206;50.202;10.948;2023-08-12T12:47:33;1.80;;;1.70;;
26540;SDS011;14206;50.202;10.948;2023-08-12T12:50:00;2.20;;;2.00;;
26540;SDS011;14206;50.202;10.948;2023-08-12T12:52:27;1.80;;;1.70;;
26540;SDS011;14206;50.202;10.948;2023-08-12T12:54:54;2.33;;;2.00;;
26540;SDS011;14206;50.202;10.948;2023-08-12T12:57:23;1.70;;;1.60;;
26540;SDS011;14206;50.202;10.948;2023-08-12T12:59:50;2.10;;;1.80;;
26540;SDS011;14206;50.202;10.948;2023-08-12T13:02:17;1.20;;;1.10;;
26540;SDS011;14206;50.202;10.948;2023-08-12T13:04:44;2.00;;;1.80;;
26540;SDS011;14206;50.202;10.948;2023-08-12T13:07:11;3.03;;;2.28;;
26540;SDS011;14206;50.202;10.948;2023-08-12T13:09:38;3.42;;;2.53;;
26540;SDS011;14206;50.202;10.948;2023-08-12T13:12:07;2.35;;;2.15;;
26540;SDS011;14206;50.202;10.948;2023-08-12T13:14:35;4.53;;;2.92;;
26540;SDS011;14206;50.202;10.948;2023-08-12T13:17:02;3.00;;;2.63;;
26540;SDS011;14206;50.202;10.948;2023-08-12T13:19:29;5.90;;;3.08;;
26540;SDS011;14206;50.202;10.948;2023-08-12T13:21:56;1.85;;;1.67;;
26540;SDS011;14206;50.202;10.948;2023-08-12T13:24:23;2.38;;;0.85;;
26540;SDS011;14206;50.202;10.948;2023-08-12T13:26:50;1.50;;;0.90;;
26540;SDS011;14206;50.202;10.948;2023-08-12T13:29:18;2.33;;;0.60;;
26540;SDS011;14206;50.202;10.948;2023-08-12T13:31:52;1.58;;;0.60;;
26540;SDS011;14206;50.202;10.948;2023-08-12T13:34:19;1.40;;;0.60;;
26540;SDS011;14206;50.202;10.948;2023-08-12T13:36:46;0.47;;;0.40;;
26540;SDS011;14206;50.202;10.948;2023-08-12T13:39:13;1.50;;;0.47;;
26540;SDS011;14206;50.202;10.948;2023-08-12T13:41:41;2.25;;;0.50;;
26540;SDS011;14206;50.202;10.948;2023-08-12T13:44:09;2.03;;;0.60;;
26540;SDS011;14206;50.202;10.948;2023-08-12T13:46:36;1.42;;;0.50;;
26540;SDS011;14206;50.202;10.948;2023-08-12T13:49:03;2.30;;;0.55;;
26540;SDS011;14206;50.202;10.948;2023-08-12T13:51:30;1.70;;;0.45;;
26540;SDS011;14206;50.202;10.948;2023-08-12T13:53:57;1.45;;;0.50;;
26540;SDS011;14206;50.202;10.948;2023-08-12T13:56:24;0.50;;;0.40;;
26540;SDS011;14206;50.202;10.948;2023-08-12T13:58:51;1.33;;;0.50;;
26540;SDS011;14206;50.202;10.948;2023-08-12T14:01:18;0.75;;;0.47;;
26540;SDS011;14206;50.202;10.948;2023-08-12T14:03:45;1.55;;;0.43;;
26540;SDS011;14206;50.202;10.948;2023-08-12T14:06:12;0.45;;;0.30;;
26540;SDS011;14206;50.202;10.948;2023-08-12T14:08:38;0.40;;;0.40;;
26540;SDS011;14206;50.202;10.948;2023-08-12T14:11:05;1.83;;;1.23;;
26540;SDS011;14206;50.202;10.948;2023-08-12T14:13:32;3.45;;;2.60;;
26540;SDS011;14206;50.202;10.948;2023-08-12T14:15:59;6.78;;;6.07;;
26540;SDS011;14206;50.202;10.948;2023-08-12T14:18:26;4.30;;;3.90;;
26540;SDS011;14206;50.202;10.948;2023-08-12T14:20:53;4.03;;;2.38;;
26540;SDS011;14206;50.202;10.948;2023-08-12T14:23:20;3.58;;;3.05;;
26540;SDS011;14206;50.202;10.948;2023-08-12T14:25:46;6.43;;;5.53;;
26540;SDS011;14206;50.202;10.948;2023-08-12T14:28:13;6.03;;;5.40;;
26540;SDS011;14206;50.202;10.948;2023-08-12T14:30:40;5.22;;;4.30;;
26540;SDS011;14206;50.202;10.948;2023-08-12T14:33:14;3.42;;;2.53;;
26540;SDS011;14206;50.202;10.948;2023-08-12T14:35:41;2.35;;;1.55;;
26540;SDS011;14206;50.202;10.948;2023-08-12T14:38:07;1.25;;;0.90;;
26540;SDS011;14206;50.202;10.948;2023-08-12T14:40:42;1.50;;;0.82;;
26540;SDS011;14206;50.202;10.948;2023-08-12T14:43:12;0.85;;;0.57;;
26540;SDS011;14206;50.202;10.948;2023-08-12T14:45:39;0.93;;;0.63;;
26540;SDS011;14206;50.202;10.948;2023-08-12T14:48:06;0.45;;;0.40;;
26540;SDS011;14206;50.202;10.948;2023-08-12T14:50:33;0.40;;;0.35;;